Flight Track Log - Related Links

Times and Time Zones

All times are in EDT time to prevent confusion due to time zone crossing. See the CES5389 flight status page for this flight to view local times or setup timezone preferences in your user account.

Time Position Orientation Groundspeed Altitude Reporting Facility
EDT Latitude Longitude Course Direction KTS MPH feet Rate Location/Type
Sat 08:21:58 PM 31.1740 121.3350 176° South 159 183 1,800  Level FlightAware ADS-B
Sat 08:22:08 PM 31.1670 121.3350 180° South 158 182 2,200 1,950 Climbing FlightAware ADS-B
Sat 08:22:38 PM 31.1450 121.3360 178° South 163 188 3,100 1,745 Climbing FlightAware ADS-B
Sat 08:23:03 PM 31.1270 121.3370 177° South 173 199 3,800 828 Climbing FlightAware ADS-B
Sat 08:23:36 PM 31.1020 121.3380 178° South 176 203 3,900 1,000 Climbing FlightAware ADS-B
Sat 08:24:03 PM 31.0680 121.3240 199° South 258 297 4,800 2,323 Climbing FlightAware ADS-B
Sat 08:24:38 PM 31.0580 121.2800 255° West 264 304 6,300 1,429 Climbing FlightAware ADS-B
Sat 08:25:06 PM 31.0550 121.2460 264° West 264 304 6,300 1,423 Level FlightAware ADS-B
Sat 08:27:00 PM 31.1264 121.0936 299° West  Level Estimated
Sat 08:27:14 PM 31.2070 121.1250 299° West 301 346 10,000  Level FlightAware ADS-B
Sat 08:27:48 PM 31.2570 121.1170 352° North 309 356 10,000  Level FlightAware ADS-B
Sat 08:28:28 PM 31.3150 121.1170 360° North 309 356 10,000  Level FlightAware ADS-B
Sat 08:29:08 PM 31.3700 121.1170 360° North 305 351 10,000 494 Level FlightAware ADS-B
Sat 08:29:53 PM 31.4370 121.1170 360° North 328 377 10,700 988 Climbing FlightAware ADS-B
Sat 08:30:33 PM 31.4910 121.0950 341° North 359 413 11,400 1,553 Climbing FlightAware ADS-B
Sat 08:31:18 PM 31.5670 121.0550 336° Northwest 382 440 12,900 2,118 Climbing FlightAware ADS-B
Sat 08:31:58 PM 31.6290 121.0220 336° Northwest 389 448 14,400 1,537 Climbing FlightAware ADS-B
Sat 08:32:40 PM 31.6920 120.9890 336° Northwest 393 452 15,000 409 Climbing FlightAware ADS-B
Sat 08:33:26 PM 31.7570 120.9550 336° Northwest 393 452 15,000  Level FlightAware ADS-B
Sat 08:34:02 PM 31.8070 120.9280 335° Northwest 393 452 15,000 1,154 Level FlightAware ADS-B
Sat 08:36:00 PM 31.8711 120.7632 295° West  Level Estimated
Sat 08:37:00 PM 31.9036 120.6793 295° West  Level Estimated
Sat 08:38:00 PM 31.9361 120.5954 295° West  Level Estimated
Sat 08:39:00 PM 31.9685 120.5114 294° West  Level Estimated
Sat 08:40:00 PM 32.0008 120.4274 294° West  Level Estimated
Sat 08:40:53 PM 32.2170 120.1840 294° West 438 504 23,600  Level FlightAware ADS-B
Sat 08:41:00 PM 32.0331 120.3432 294° West  Level Estimated
Sat 08:41:38 PM 32.2250 120.0800 275° West 438 504 23,600  Level FlightAware ADS-B
Sat 08:42:21 PM 32.2330 119.9880 276° West 438 504 23,600  Level FlightAware ADS-B
Sat 08:42:57 PM 32.2390 119.9150 276° West 438 504 23,600  Level FlightAware ADS-B
Sat 08:43:34 PM 32.2460 119.8400 276° West 438 504 23,600  Level FlightAware ADS-B
Sat 08:44:22 PM 32.2540 119.7430 276° West 438 504 23,600  Level FlightAware ADS-B
Sat 08:44:58 PM 32.2610 119.6700 276° West 438 504 23,600  Level FlightAware ADS-B
Sat 08:47:00 PM 32.3261 119.4982 294° West  Level Estimated
Sat 08:48:00 PM 32.3581 119.4136 294° West  Level Estimated
Sat 08:49:00 PM 32.3900 119.3289 294° West  Level Estimated
Sat 08:50:00 PM 32.4218 119.2442 294° West  Level Estimated
Sat 08:51:00 PM 32.4536 119.1594 294° West  Level Estimated
Sat 08:52:00 PM 32.4853 119.0746 294° West  Level Estimated
Sat 08:53:00 PM 32.5170 118.9897 294° West  Level Estimated
Sat 08:54:00 PM 32.5486 118.9047 294° West  Level Estimated
Sat 08:55:00 PM 32.5802 118.8197 294° West  Level Estimated
Sat 08:56:00 PM 32.6116 118.7346 294° West  Level Estimated
Sat 08:57:00 PM 32.6431 118.6495 294° West  Level Estimated
Sat 08:58:00 PM 32.6745 118.5643 294° West  Level Estimated
Sat 08:59:00 PM 32.7058 118.4791 294° West  Level Estimated
Sat 09:00:00 PM 32.7371 118.3938 294° West  Level Estimated
Sat 09:01:00 PM 32.7683 118.3084 294° West  Level Estimated
Sat 09:02:00 PM 32.7994 118.2230 293° West  Level Estimated
Sat 09:03:00 PM 32.8305 118.1375 293° West  Level Estimated
Sat 09:04:00 PM 32.8615 118.0519 293° West  Level Estimated
Sat 09:05:00 PM 32.8925 117.9663 293° West  Level Estimated
Sat 09:06:00 PM 32.9234 117.8806 293° West  Level Estimated
Sat 09:07:00 PM 32.9543 117.7949 293° West  Level Estimated
Sat 09:08:00 PM 32.9851 117.7091 293° West  Level Estimated
Sat 09:09:00 PM 33.0158 117.6233 293° West  Level Estimated
Sat 09:10:00 PM 33.0465 117.5374 293° West  Level Estimated
Sat 09:11:00 PM 33.0771 117.4514 293° West  Level Estimated
Sat 09:12:00 PM 33.1077 117.3653 293° West  Level Estimated
Sat 09:13:00 PM 33.1382 117.2793 293° West  Level Estimated
Sat 09:14:00 PM 33.1687 117.1931 293° West  Level Estimated
Sat 09:15:00 PM 33.1991 117.1069 293° West  Level Estimated
Sat 09:16:00 PM 33.2294 117.0206 293° West  Level Estimated
Sat 09:17:00 PM 33.2597 116.9343 293° West  Level Estimated
Sat 09:18:00 PM 33.2899 116.8479 293° West  Level Estimated
Sat 09:19:00 PM 33.3200 116.7615 293° West  Level Estimated
Sat 09:20:00 PM 33.3501 116.6749 293° West  Level Estimated
Sat 09:21:00 PM 33.3801 116.5884 293° West  Level Estimated
Sat 09:22:00 PM 33.4101 116.5017 293° West  Level Estimated
Sat 09:23:00 PM 33.4400 116.4151 292° West  Level Estimated
Sat 09:24:00 PM 33.4699 116.3283 292° West  Level Estimated
Sat 09:25:00 PM 33.4996 116.2415 292° West  Level Estimated
Sat 09:26:00 PM 33.5294 116.1546 292° West  Level Estimated
Sat 09:27:00 PM 33.5707 116.0334 292° West  Level Estimated
Sat 09:28:00 PM 33.6120 115.9120 292° West  Level Estimated
Sat 09:29:00 PM 33.6531 115.7905 292° West  Level Estimated
Sat 09:30:00 PM 33.6941 115.6689 292° West  Level Estimated
Sat 09:31:00 PM 33.7350 115.5472 292° West  Level Estimated
Sat 09:32:00 PM 33.7757 115.4253 292° West  Level Estimated
Sat 09:33:00 PM 33.8164 115.3034 292° West  Level Estimated
Sat 09:34:00 PM 33.8569 115.1813 292° West  Level Estimated
Sat 09:35:00 PM 33.8973 115.0591 292° West  Level Estimated
Sat 09:36:00 PM 33.9376 114.9368 292° West  Level Estimated
Sat 09:37:00 PM 33.9777 114.8144 292° West  Level Estimated
Sat 09:38:00 PM 34.0178 114.6919 292° West  Level Estimated
Sat 09:39:00 PM 34.0577 114.5692 291° West  Level Estimated
Sat 09:40:00 PM 34.0975 114.4465 291° West  Level Estimated
Sat 09:41:00 PM 34.1372 114.3236 291° West  Level Estimated
Sat 09:42:00 PM 34.1767 114.2006 291° West  Level Estimated
Sat 09:43:00 PM 34.2162 114.0775 291° West  Level Estimated
Sat 09:44:00 PM 34.2555 113.9543 291° West  Level Estimated
Sat 09:45:00 PM 34.2947 113.8309 291° West  Level Estimated
Sat 09:46:00 PM 34.3337 113.7075 291° West  Level Estimated
Sat 09:47:00 PM 34.3727 113.5839 291° West  Level Estimated
Sat 09:48:00 PM 34.4070 113.4746 291° West  Level Estimated
Sat 09:49:00 PM 34.4412 113.3652 291° West  Level Estimated
Sat 09:50:00 PM 34.4753 113.2557 291° West  Level Estimated
Sat 09:51:00 PM 34.5093 113.1462 291° West  Level Estimated
Sat 09:52:00 PM 34.5432 113.0365 291° West  Level Estimated
Sat 09:53:00 PM 34.5770 112.9268 291° West  Level Estimated
Sat 09:54:00 PM 34.6107 112.8169 290° West  Level Estimated
Sat 09:55:00 PM 34.6443 112.7070 290° West  Level Estimated
Sat 09:56:00 PM 34.6779 112.5970 290° West  Level Estimated
Sat 09:57:00 PM 34.7113 112.4869 290° West  Level Estimated
Sat 09:58:00 PM 34.7411 112.3883 290° West  Level Estimated
Sat 09:59:00 PM 34.7411 112.3883 68° East  Level Estimated
Sat 10:00:00 PM 34.7411 112.3883 68° East  Level Estimated
Sat 10:01:00 PM 34.7411 112.3883 68° East  Level Estimated
Sat 10:02:00 PM 34.7411 112.3883 68° East  Level Estimated
Sat 10:03:00 PM 34.7411 112.3883 68° East  Level Estimated

Login

Don't have an account? Register now (free) for customized features, flight alerts, and more!